createdAt,value
2019-04-27T00:00:43.288Z,76.85
2019-04-27T00:03:20.743Z,76.61
2019-04-27T00:05:49.028Z,76.66
2019-04-27T00:08:35.647Z,77.58
2019-04-27T00:11:17.074Z,77.76
2019-04-27T00:13:43.972Z,77.96
2019-04-27T00:16:28.699Z,78.25
2019-04-27T00:18:58.166Z,77.42
2019-04-27T00:21:28.917Z,77.51
2019-04-27T00:23:55.070Z,77.15
2019-04-27T00:26:21.280Z,76.34
2019-04-27T00:28:47.598Z,75.93
2019-04-27T00:31:14.075Z,75.75
2019-04-27T00:33:40.384Z,76.54
2019-04-27T00:36:17.604Z,76.51
2019-04-27T00:38:57.523Z,76.46
2019-04-27T00:41:24.231Z,76.81
2019-04-27T00:43:50.729Z,76.80
2019-04-27T00:46:17.030Z,77.00
2019-04-27T00:48:43.393Z,77.29
2019-04-27T00:51:09.583Z,76.74
2019-04-27T00:53:35.912Z,76.36
2019-04-27T00:56:09.886Z,76.14
2019-04-27T00:58:38.230Z,76.02
2019-04-27T01:01:12.734Z,75.95
2019-04-27T01:03:57.418Z,75.47
2019-04-27T01:06:23.942Z,75.08
2019-04-27T01:08:50.066Z,75.32
2019-04-27T01:11:16.305Z,74.75
2019-04-27T01:13:43.419Z,74.91
2019-04-27T01:16:10.507Z,74.98
2019-04-27T01:18:38.752Z,74.62
2019-04-27T01:21:05.049Z,74.66
2019-04-27T01:23:32.263Z,74.72
2019-04-27T01:26:15.280Z,74.67
2019-04-27T01:28:53.545Z,74.79
2019-04-27T01:31:21.843Z,74.79
2019-04-27T01:33:48.898Z,74.54
2019-04-27T01:36:15.206Z,74.80
2019-04-27T01:38:41.630Z,74.83
2019-04-27T01:41:08.990Z,76.51
2019-04-27T01:43:35.253Z,76.21
2019-04-27T01:46:01.676Z,76.43
2019-04-27T01:48:28.275Z,76.62
2019-04-27T01:50:56.734Z,76.41
2019-04-27T01:53:22.854Z,76.79
2019-04-27T01:55:49.348Z,75.96
2019-04-27T01:58:15.574Z,76.13
2019-04-27T02:00:56.120Z,76.64
2019-04-27T02:03:24.539Z,76.62
2019-04-27T02:05:55.511Z,75.67
2019-04-27T02:08:21.881Z,76.09
2019-04-27T02:10:49.619Z,75.24
2019-04-27T02:13:15.772Z,75.34
2019-04-27T02:15:42.001Z,76.88
2019-04-27T02:18:09.495Z,77.46
2019-04-27T02:20:35.788Z,77.53
2019-04-27T02:23:02.346Z,77.69
2019-04-27T02:25:29.477Z,77.19
2019-04-27T02:28:00.343Z,76.92
2019-04-27T02:30:46.513Z,76.61
2019-04-27T02:33:14.778Z,75.98
2019-04-27T02:35:42.088Z,75.67
2019-04-27T02:38:10.074Z,76.36
2019-04-27T02:40:56.718Z,76.47
2019-04-27T02:43:29.628Z,76.85
2019-04-27T02:45:56.116Z,76.54
2019-04-27T02:48:22.206Z,76.49
2019-04-27T02:50:50.299Z,77.14
2019-04-27T02:53:19.509Z,77.42
2019-04-27T02:55:44.746Z,77.40
2019-04-27T02:58:13.019Z,76.79
2019-04-27T03:00:39.946Z,77.22
2019-04-27T03:03:10.273Z,77.18
2019-04-27T03:05:36.586Z,77.39
2019-04-27T03:08:02.916Z,77.45
2019-04-27T03:10:30.792Z,76.95
2019-04-27T03:13:00.125Z,77.00
2019-04-27T03:15:30.582Z,76.80
2019-04-27T03:18:01.140Z,77.61
2019-04-27T03:20:34.935Z,77.92
2019-04-27T03:23:03.077Z,78.31
2019-04-27T03:25:34.108Z,78.40
2019-04-27T03:28:02.748Z,78.47
2019-04-27T03:30:31.771Z,78.59
2019-04-27T03:33:02.451Z,78.69
2019-04-27T03:35:25.791Z,78.78
2019-04-27T03:37:52.102Z,79.06
2019-04-27T03:40:20.407Z,79.04
2019-04-27T03:42:50.070Z,78.42
2019-04-27T03:45:16.557Z,77.95
2019-04-27T03:47:43.272Z,77.90
2019-04-27T03:50:11.468Z,77.79
2019-04-27T03:52:45.372Z,77.89
2019-04-27T03:55:19.939Z,78.09
2019-04-27T03:58:04.866Z,78.32
2019-04-27T04:00:32.893Z,78.17
2019-04-27T04:03:00.541Z,78.04
2019-04-27T04:05:29.912Z,77.97
2019-04-27T04:07:55.477Z,78.16
2019-04-27T04:10:22.974Z,78.19
2019-04-27T04:12:51.079Z,78.31
2019-04-27T04:15:29.818Z,78.13
2019-04-27T04:17:56.161Z,77.99
2019-04-27T04:20:22.401Z,77.87
2019-04-27T04:22:51.237Z,77.60
2019-04-27T04:25:16.859Z,76.68
2019-04-27T04:27:43.065Z,76.16
2019-04-27T04:30:12.185Z,75.95
2019-04-27T04:32:39.565Z,76.10
2019-04-27T04:35:15.747Z,76.07
2019-04-27T04:37:41.942Z,75.82
2019-04-27T04:40:09.816Z,75.63
2019-04-27T04:42:44.074Z,75.47
2019-04-27T04:45:12.289Z,74.94
2019-04-27T04:47:43.151Z,74.30
2019-04-27T04:50:14.588Z,74.09
2019-04-27T04:52:39.678Z,73.97
2019-04-27T04:55:06.331Z,73.67
2019-04-27T04:57:32.587Z,73.37
2019-04-27T04:59:59.322Z,73.07
2019-04-27T05:02:25.711Z,72.63
2019-04-27T05:04:51.917Z,71.99
2019-04-27T05:07:19.405Z,71.78
2019-04-27T05:09:45.643Z,72.14
2019-04-27T05:12:13.008Z,71.57
2019-04-27T05:14:39.216Z,71.70
2019-04-27T05:17:05.417Z,71.26
2019-04-27T05:19:31.619Z,71.38
2019-04-27T05:21:59.328Z,70.52
2019-04-27T05:24:25.631Z,70.44
2019-04-27T05:26:51.843Z,70.67
2019-04-27T05:29:19.146Z,69.80
2019-04-27T05:31:45.669Z,69.66
2019-04-27T05:34:11.777Z,69.61
2019-04-27T05:36:41.624Z,69.03
2019-04-27T05:39:06.324Z,68.42
2019-04-27T05:41:37.474Z,69.01
2019-04-27T05:44:03.150Z,68.15
2019-04-27T05:46:39.673Z,68.85
2019-04-27T05:49:09.545Z,68.14
2019-04-27T05:51:37.276Z,67.58
2019-04-27T05:54:04.073Z,67.46
2019-04-27T05:56:30.179Z,67.09
2019-04-27T05:58:56.548Z,66.18
2019-04-27T06:01:22.906Z,66.40
2019-04-27T06:03:49.802Z,65.61
2019-04-27T06:06:16.158Z,66.09
2019-04-27T06:08:42.401Z,66.63
2019-04-27T06:11:09.401Z,65.83
2019-04-27T06:13:36.021Z,65.91
2019-04-27T06:16:02.422Z,65.36
2019-04-27T06:18:29.424Z,65.17
2019-04-27T06:20:56.080Z,64.52
2019-04-27T06:23:22.397Z,64.20
2019-04-27T06:25:49.228Z,63.74
2019-04-27T06:28:15.674Z,63.94
2019-04-27T06:30:41.990Z,65.52
2019-04-27T06:33:09.400Z,66.01
2019-04-27T06:35:35.724Z,65.27
2019-04-27T06:38:02.088Z,64.39
2019-04-27T06:40:29.036Z,64.53
2019-04-27T06:42:55.390Z,64.25
2019-04-27T06:45:21.580Z,64.44
2019-04-27T06:47:48.816Z,64.67
2019-04-27T06:50:16.162Z,63.73
2019-04-27T06:52:42.318Z,65.13
2019-04-27T06:55:09.332Z,65.13
2019-04-27T06:57:36.000Z,63.46
2019-04-27T07:00:04.318Z,63.86
2019-04-27T07:02:30.647Z,64.29
2019-04-27T07:04:56.870Z,62.76
2019-04-27T07:07:23.194Z,64.28
2019-04-27T07:09:49.458Z,63.70
2019-04-27T07:12:15.743Z,64.16
2019-04-27T07:14:52.349Z,63.65
2019-04-27T07:17:10.117Z,62.66
2019-04-27T07:19:36.364Z,62.08
2019-04-27T07:22:02.591Z,63.16
2019-04-27T07:24:29.302Z,62.14
2019-04-27T07:26:55.664Z,62.39
2019-04-27T07:29:23.266Z,63.71
2019-04-27T07:31:49.862Z,61.56
2019-04-27T07:34:16.153Z,61.56
2019-04-27T07:36:42.413Z,60.15
2019-04-27T07:39:11.209Z,61.33
2019-04-27T07:41:38.720Z,60.84
2019-04-27T07:44:08.419Z,59.22
2019-04-27T07:46:35.427Z,59.31
2019-04-27T07:49:01.768Z,60.09
2019-04-27T07:51:32.046Z,59.44
2019-04-27T07:53:58.925Z,59.21
2019-04-27T07:56:25.302Z,57.52
2019-04-27T07:58:51.634Z,57.95
2019-04-27T08:01:19.282Z,59.03
2019-04-27T08:03:45.943Z,61.86
2019-04-27T08:06:12.108Z,59.95
2019-04-27T08:08:39.624Z,59.82
2019-04-27T08:11:05.973Z,60.19
2019-04-27T08:13:32.204Z,60.21
2019-04-27T08:15:58.998Z,60.61
2019-04-27T08:18:25.463Z,59.93
2019-04-27T08:20:51.863Z,59.81
2019-04-27T08:23:19.521Z,58.68
2019-04-27T08:25:46.076Z,59.55
2019-04-27T08:28:31.829Z,60.21
2019-04-27T08:31:00.423Z,61.03
2019-04-27T08:33:26.646Z,58.65
2019-04-27T08:35:53.025Z,58.27
2019-04-27T08:38:20.659Z,58.56
2019-04-27T08:40:47.072Z,59.62
2019-04-27T08:43:13.479Z,58.53
2019-04-27T08:45:39.887Z,59.29
2019-04-27T08:48:06.269Z,60.91
2019-04-27T08:50:32.503Z,59.91
2019-04-27T08:53:00.696Z,59.28
2019-04-27T08:55:27.139Z,60.81
2019-04-27T08:57:53.589Z,60.72
2019-04-27T09:00:21.293Z,60.72
2019-04-27T09:02:49.966Z,61.02
2019-04-27T09:05:19.300Z,62.54
2019-04-27T09:07:54.054Z,62.51
2019-04-27T09:10:28.937Z,61.60
2019-04-27T09:12:59.787Z,62.66
2019-04-27T09:15:44.724Z,62.31
2019-04-27T09:18:12.796Z,63.77
2019-04-27T09:20:46.953Z,65.56
2019-04-27T09:23:13.377Z,65.56
2019-04-27T09:25:39.964Z,64.49
2019-04-27T09:28:06.580Z,69.60
2019-04-27T09:30:33.605Z,69.60
2019-04-27T09:32:59.953Z,71.00
2019-04-27T09:35:26.882Z,70.45
2019-04-27T09:37:53.214Z,71.06
2019-04-27T09:40:19.506Z,71.02
2019-04-27T09:42:46.371Z,72.11
2019-04-27T09:45:13.530Z,71.56
2019-04-27T09:47:39.969Z,73.35
2019-04-27T09:50:06.809Z,73.24
2019-04-27T09:52:33.357Z,70.72
2019-04-27T09:54:59.566Z,73.40
2019-04-27T09:57:26.033Z,71.78
2019-04-27T09:59:52.437Z,73.82
2019-04-27T10:02:19.029Z,72.38
2019-04-27T10:04:46.202Z,72.89
2019-04-27T10:07:13.736Z,74.30
2019-04-27T10:09:40.329Z,73.63
2019-04-27T10:12:08.401Z,73.38
2019-04-27T10:14:34.732Z,73.25
2019-04-27T10:17:00.963Z,74.62
2019-04-27T10:19:30.665Z,75.17
2019-04-27T10:21:55.547Z,75.46
2019-04-27T10:24:21.820Z,76.71
2019-04-27T10:26:48.061Z,74.80
2019-04-27T10:29:16.127Z,74.33
2019-04-27T10:31:42.527Z,75.82
2019-04-27T10:34:08.842Z,74.78
2019-04-27T10:36:37.954Z,74.82
2019-04-27T10:39:05.648Z,75.56
2019-04-27T10:41:32.965Z,74.60
2019-04-27T10:43:59.229Z,75.21
2019-04-27T10:46:25.843Z,76.07
2019-04-27T10:48:52.378Z,74.47
2019-04-27T10:51:18.693Z,75.12
2019-04-27T10:53:45.702Z,72.64
2019-04-27T10:56:12.209Z,76.07
2019-04-27T10:58:38.358Z,76.23
2019-04-27T11:01:06.595Z,76.14
2019-04-27T11:03:53.125Z,74.38
2019-04-27T11:06:39.353Z,74.90
2019-04-27T11:09:07.659Z,76.07
2019-04-27T11:11:36.335Z,74.78
2019-04-27T11:14:03.296Z,72.88
2019-04-27T11:16:29.378Z,74.38
2019-04-27T11:18:56.457Z,73.61
2019-04-27T11:21:23.778Z,75.57
2019-04-27T11:23:50.104Z,72.58
2019-04-27T11:26:16.525Z,73.71
2019-04-27T11:28:42.892Z,72.29
2019-04-27T11:31:09.234Z,73.03
2019-04-27T11:33:36.576Z,74.21
2019-04-27T11:36:08.118Z,74.57
2019-04-27T11:38:34.344Z,73.40
2019-04-27T11:41:00.622Z,74.84
2019-04-27T11:43:26.872Z,74.64
2019-04-27T11:45:53.145Z,73.56
2019-04-27T11:48:19.257Z,72.34
2019-04-27T11:50:46.029Z,75.23
2019-04-27T11:53:22.111Z,71.85
2019-04-27T11:55:40.732Z,74.78
2019-04-27T11:58:06.881Z,73.48
2019-04-27T12:00:33.222Z,73.51
2019-04-27T12:02:59.371Z,74.37
2019-04-27T12:05:26.142Z,73.61
2019-04-27T12:07:52.487Z,71.35
2019-04-27T12:10:18.958Z,72.19
2019-04-27T12:12:46.318Z,74.34
2019-04-27T12:15:16.132Z,72.23
2019-04-27T12:17:42.446Z,72.85
2019-04-27T12:20:09.347Z,73.39
2019-04-27T12:22:35.561Z,74.13
2019-04-27T12:25:02.789Z,74.31
2019-04-27T12:27:41.079Z,75.02
2019-04-27T12:30:16.224Z,73.56
2019-04-27T12:32:42.756Z,74.47
2019-04-27T12:35:09.106Z,73.97
2019-04-27T12:37:35.818Z,75.64
2019-04-27T12:40:05.951Z,75.86
2019-04-27T12:42:32.229Z,76.66
2019-04-27T12:44:58.643Z,77.18
2019-04-27T12:47:26.318Z,79.05
2019-04-27T12:49:52.725Z,77.82
2019-04-27T12:52:20.422Z,79.76
2019-04-27T12:55:04.997Z,79.20
2019-04-27T12:57:45.336Z,80.49
2019-04-27T13:00:19.379Z,79.19
2019-04-27T13:02:52.060Z,78.52
2019-04-27T13:05:18.398Z,80.71
2019-04-27T13:07:44.844Z,78.22
2019-04-27T13:10:11.570Z,79.47
2019-04-27T13:12:37.836Z,78.12
2019-04-27T13:15:07.040Z,78.63
2019-04-27T13:17:34.409Z,78.70
2019-04-27T13:20:00.817Z,79.30
2019-04-27T13:22:27.226Z,79.02
2019-04-27T13:24:53.384Z,79.28
2019-04-27T13:27:19.672Z,79.38
2019-04-27T13:29:46.686Z,78.42
2019-04-27T13:32:16.049Z,79.00
2019-04-27T13:34:42.390Z,78.62
2019-04-27T13:37:13.408Z,80.42
2019-04-27T13:39:39.661Z,77.11
2019-04-27T13:42:06.609Z,74.92
2019-04-27T13:44:33.156Z,75.80
2019-04-27T13:47:07.027Z,77.90
2019-04-27T13:49:47.277Z,77.87
2019-04-27T13:52:16.230Z,75.64
2019-04-27T13:54:42.741Z,75.41
2019-04-27T13:57:09.110Z,74.04
2019-04-27T13:59:35.600Z,74.76
2019-04-27T14:02:02.322Z,72.93
2019-04-27T14:04:28.558Z,74.48
2019-04-27T14:06:54.895Z,73.46
2019-04-27T14:09:21.136Z,73.64
2019-04-27T14:11:48.231Z,72.35
2019-04-27T14:14:14.703Z,73.01
2019-04-27T14:16:43.714Z,74.02
2019-04-27T14:19:11.029Z,72.67
2019-04-27T14:21:37.894Z,73.93
2019-04-27T14:24:04.467Z,74.25
2019-04-27T14:26:30.594Z,74.62
2019-04-27T14:28:58.349Z,74.12
2019-04-27T14:31:24.693Z,76.75
2019-04-27T14:33:52.066Z,77.57
2019-04-27T14:36:18.996Z,77.20
2019-04-27T14:38:45.409Z,76.89
2019-04-27T14:41:12.136Z,75.65
2019-04-27T14:43:38.495Z,77.42
2019-04-27T14:46:04.889Z,77.32
2019-04-27T14:48:31.258Z,78.39
2019-04-27T14:50:59.084Z,78.34
2019-04-27T14:53:25.406Z,76.39
2019-04-27T14:55:51.796Z,75.31
2019-04-27T14:58:19.163Z,76.68
2019-04-27T15:00:45.963Z,75.64
2019-04-27T15:03:12.177Z,76.78
2019-04-27T15:05:38.503Z,76.70
2019-04-27T15:08:06.419Z,76.59
2019-04-27T15:10:36.108Z,76.01
2019-04-27T15:13:05.924Z,77.30
2019-04-27T15:15:32.553Z,76.34
2019-04-27T15:18:04.499Z,77.31
2019-04-27T15:20:33.373Z,76.73
2019-04-27T15:23:00.158Z,77.45
2019-04-27T15:25:26.489Z,78.21
2019-04-27T15:28:01.409Z,78.29
2019-04-27T15:30:39.653Z,78.25
2019-04-27T15:33:22.437Z,78.39
2019-04-27T15:36:02.712Z,79.13
2019-04-27T15:38:30.914Z,78.56
2019-04-27T15:41:15.927Z,79.07
2019-04-27T15:43:44.195Z,79.35
2019-04-27T15:46:10.698Z,75.41
2019-04-27T15:48:38.443Z,76.79
2019-04-27T15:51:14.796Z,75.45
2019-04-27T15:53:34.509Z,73.54
2019-04-27T15:56:01.960Z,72.39
2019-04-27T15:58:28.757Z,70.99
2019-04-27T16:00:56.506Z,71.44
2019-04-27T16:03:27.353Z,72.03
2019-04-27T16:05:52.035Z,74.13
2019-04-27T16:08:18.820Z,72.60
2019-04-27T16:10:45.336Z,72.97
2019-04-27T16:13:15.164Z,74.07
2019-04-27T16:15:40.308Z,74.64
2019-04-27T16:18:08.667Z,73.60
2019-04-27T16:20:35.576Z,73.68
2019-04-27T16:23:03.277Z,72.04
2019-04-27T16:25:32.773Z,72.49
2019-04-27T16:27:58.937Z,70.57
2019-04-27T16:30:25.437Z,70.06
2019-04-27T16:32:51.870Z,72.02
2019-04-27T16:35:21.866Z,72.37
2019-04-27T16:38:03.580Z,72.61
2019-04-27T16:40:30.199Z,72.09
2019-04-27T16:42:58.420Z,73.85
2019-04-27T16:45:27.063Z,72.01
2019-04-27T16:47:56.568Z,71.08
2019-04-27T16:50:25.484Z,68.79
2019-04-27T16:52:56.879Z,70.99
2019-04-27T16:55:19.878Z,69.29
2019-04-27T16:57:46.442Z,71.62
2019-04-27T17:00:15.213Z,73.22
2019-04-27T17:02:41.641Z,70.81
2019-04-27T17:05:08.597Z,68.45
2019-04-27T17:07:37.512Z,71.11
2019-04-27T17:10:03.752Z,71.71
2019-04-27T17:12:34.846Z,71.83
2019-04-27T17:15:18.954Z,72.54
2019-04-27T17:17:56.426Z,72.47
2019-04-27T17:20:23.961Z,72.84
2019-04-27T17:22:53.362Z,76.22
2019-04-27T17:25:20.143Z,76.30
2019-04-27T17:27:51.527Z,75.21
2019-04-27T17:30:18.875Z,75.49
2019-04-27T17:32:53.094Z,76.80
2019-04-27T17:35:19.451Z,76.14
2019-04-27T17:37:45.747Z,76.65
2019-04-27T17:40:15.121Z,78.12
2019-04-27T17:42:40.379Z,79.51
2019-04-27T17:45:06.694Z,79.01
2019-04-27T17:47:32.901Z,77.78
2019-04-27T17:49:59.118Z,77.86
2019-04-27T17:52:25.514Z,78.25
2019-04-27T17:54:51.592Z,78.78
2019-04-27T17:57:18.001Z,79.92
2019-04-27T17:59:44.250Z,80.84
2019-04-27T18:02:10.596Z,79.88
2019-04-27T18:04:40.743Z,79.66
2019-04-27T18:07:05.122Z,80.90
2019-04-27T18:09:33.543Z,79.67
2019-04-27T18:11:59.511Z,80.39
2019-04-27T18:14:25.601Z,80.50
2019-04-27T18:16:51.961Z,80.56
2019-04-27T18:19:20.213Z,80.74
2019-04-27T18:22:00.539Z,80.60
2019-04-27T18:24:29.109Z,80.02
2019-04-27T18:27:02.986Z,79.62
2019-04-27T18:29:30.863Z,78.84
2019-04-27T18:31:58.183Z,78.25
2019-04-27T18:34:24.597Z,77.83
2019-04-27T18:36:51.139Z,77.97
2019-04-27T18:39:18.369Z,77.76
2019-04-27T18:41:49.734Z,78.35
2019-04-27T18:44:13.108Z,77.87
2019-04-27T18:46:39.428Z,77.66
2019-04-27T18:49:08.934Z,76.89
2019-04-27T18:51:59.369Z,76.49
2019-04-27T18:54:22.287Z,77.24
2019-04-27T18:57:01.337Z,77.83
2019-04-27T18:59:18.611Z,77.83
2019-04-27T19:01:45.047Z,78.09
2019-04-27T19:04:11.211Z,78.19
2019-04-27T19:06:39.160Z,78.20
2019-04-27T19:09:05.848Z,78.09
2019-04-27T19:11:33.586Z,78.35
2019-04-27T19:13:59.826Z,78.50
2019-04-27T19:16:29.035Z,78.38
2019-04-27T19:18:55.514Z,78.57
2019-04-27T19:21:21.776Z,78.63
2019-04-27T19:23:49.236Z,78.64
2019-04-27T19:26:20.529Z,78.66
2019-04-27T19:28:54.676Z,78.86
2019-04-27T19:31:22.886Z,79.16
2019-04-27T19:33:49.282Z,79.28
2019-04-27T19:36:16.814Z,79.17
2019-04-27T19:38:43.072Z,79.25
2019-04-27T19:41:09.897Z,79.03
2019-04-27T19:43:38.295Z,79.08
2019-04-27T19:46:06.825Z,78.83
2019-04-27T19:48:33.049Z,79.04
2019-04-27T19:51:00.192Z,79.17
2019-04-27T19:53:26.608Z,78.88
2019-04-27T19:56:02.165Z,78.72
2019-04-27T19:58:34.684Z,78.33
2019-04-27T20:01:11.762Z,78.19
2019-04-27T20:03:34.338Z,77.89
2019-04-27T20:06:00.574Z,77.86
2019-04-27T20:08:31.660Z,77.71
2019-04-27T20:10:58.130Z,77.84
2019-04-27T20:13:24.364Z,78.07
2019-04-27T20:15:51.252Z,80.29
2019-04-27T20:18:17.535Z,80.75
2019-04-27T20:20:43.755Z,80.26
2019-04-27T20:23:11.088Z,80.33
2019-04-27T20:25:37.415Z,80.61
2019-04-27T20:28:03.811Z,80.27
2019-04-27T20:30:31.560Z,80.29
2019-04-27T20:32:57.944Z,79.70
2019-04-27T20:35:24.217Z,79.68
2019-04-27T20:37:51.877Z,78.92
2019-04-27T20:40:18.588Z,79.65
2019-04-27T20:42:44.875Z,79.45
2019-04-27T20:45:12.111Z,80.23
2019-04-27T20:47:38.596Z,79.37
2019-04-27T20:50:05.367Z,79.17
2019-04-27T20:52:42.576Z,78.61
2019-04-27T20:55:11.206Z,78.51
2019-04-27T20:57:37.661Z,78.20
2019-04-27T21:00:05.818Z,79.35
2019-04-27T21:02:54.305Z,78.47
2019-04-27T21:05:34.587Z,79.84
2019-04-27T21:08:07.080Z,79.48
2019-04-27T21:10:33.408Z,78.70
2019-04-27T21:13:00.972Z,78.79
2019-04-27T21:15:27.387Z,77.79
2019-04-27T21:17:53.802Z,77.41
2019-04-27T21:20:21.785Z,77.65
2019-04-27T21:22:48.197Z,77.80
2019-04-27T21:25:14.488Z,77.24
2019-04-27T21:27:41.166Z,75.71
2019-04-27T21:30:07.846Z,76.09
2019-04-27T21:32:34.110Z,75.43
2019-04-27T21:35:01.668Z,76.43
2019-04-27T21:37:30.658Z,76.12
2019-04-27T21:40:14.638Z,75.10
2019-04-27T21:42:41.255Z,75.31
2019-04-27T21:45:08.316Z,75.29
2019-04-27T21:47:34.700Z,75.63
2019-04-27T21:50:00.898Z,76.35
2019-04-27T21:52:28.873Z,76.47
2019-04-27T21:54:55.604Z,76.75
2019-04-27T21:57:21.802Z,75.79
2019-04-27T21:59:47.900Z,75.94
2019-04-27T22:02:14.603Z,77.13
2019-04-27T22:04:41.685Z,77.49
2019-04-27T22:07:07.957Z,77.54
2019-04-27T22:09:34.056Z,76.45
2019-04-27T22:12:00.852Z,76.47
2019-04-27T22:14:28.473Z,76.93
2019-04-27T22:16:54.754Z,75.92
2019-04-27T22:19:22.310Z,76.14
2019-04-27T22:21:48.458Z,76.98
2019-04-27T22:24:22.333Z,76.10
2019-04-27T22:26:48.635Z,76.74
2019-04-27T22:29:14.851Z,77.27
2019-04-27T22:31:41.583Z,76.82
2019-04-27T22:34:10.730Z,76.99
2019-04-27T22:36:37.126Z,77.28
2019-04-27T22:39:07.330Z,76.55
2019-04-27T22:41:53.772Z,76.56
2019-04-27T22:44:24.810Z,76.94
2019-04-27T22:46:52.776Z,77.17
2019-04-27T22:49:19.021Z,78.18
2019-04-27T22:51:45.238Z,78.36
2019-04-27T22:54:11.700Z,77.99
2019-04-27T22:56:39.358Z,78.14
2019-04-27T22:59:11.462Z,78.40
2019-04-27T23:01:57.744Z,78.41
2019-04-27T23:04:42.930Z,79.12
2019-04-27T23:07:10.718Z,78.99
2019-04-27T23:09:37.317Z,78.98
2019-04-27T23:12:05.456Z,78.97
2019-04-27T23:14:31.670Z,79.22
2019-04-27T23:17:17.882Z,79.38
2019-04-27T23:19:44.187Z,79.83
2019-04-27T23:22:11.093Z,79.72
2019-04-27T23:24:37.389Z,79.62
2019-04-27T23:27:03.788Z,79.51
2019-04-27T23:29:30.584Z,79.46
2019-04-27T23:32:01.568Z,79.01
2019-04-27T23:34:27.922Z,78.64
2019-04-27T23:36:54.110Z,79.26
2019-04-27T23:39:20.451Z,79.13
2019-04-27T23:41:46.690Z,79.01
2019-04-27T23:44:13.025Z,78.82
2019-04-27T23:46:39.220Z,78.96
2019-04-27T23:49:05.431Z,78.68
2019-04-27T23:51:50.203Z,78.44
2019-04-27T23:54:16.307Z,78.15
2019-04-27T23:56:42.608Z,78.58
2019-04-27T23:59:08.860Z,78.41
